createdAt,value
2019-01-21T00:02:00.425Z,13.30
2019-01-21T00:04:27.488Z,13.90
2019-01-21T00:06:54.567Z,12.50
2019-01-21T00:09:21.740Z,13.53
2019-01-21T00:11:50.529Z,13.60
2019-01-21T00:14:17.585Z,11.67
2019-01-21T00:16:44.728Z,14.63
2019-01-21T00:19:11.830Z,11.67
2019-01-21T00:21:39.783Z,14.53
2019-01-21T00:24:07.038Z,16.20
2019-01-21T00:26:34.154Z,16.10
2019-01-21T00:29:01.219Z,12.80
2019-01-21T00:31:28.316Z,12.90
2019-01-21T00:33:55.372Z,12.70
2019-01-21T00:36:22.550Z,11.80
2019-01-21T00:38:49.613Z,13.27
2019-01-21T00:41:16.734Z,14.30
2019-01-21T00:43:43.908Z,12.70
2019-01-21T00:46:11.150Z,11.40
2019-01-21T00:48:38.203Z,13.13
2019-01-21T00:51:05.303Z,20.10
2019-01-21T00:53:32.493Z,12.10
2019-01-21T00:55:59.742Z,12.70
2019-01-21T00:58:26.804Z,11.43
2019-01-21T01:00:53.900Z,12.23
2019-01-21T01:03:20.969Z,12.63
2019-01-21T01:05:48.153Z,14.53
2019-01-21T01:08:15.217Z,11.03
2019-01-21T01:10:42.306Z,12.20
2019-01-21T01:13:09.391Z,12.50
2019-01-21T01:15:37.558Z,11.53
2019-01-21T01:18:04.616Z,16.03
2019-01-21T01:20:31.722Z,11.73
2019-01-21T01:22:58.781Z,14.83
2019-01-21T01:25:25.948Z,12.70
2019-01-21T01:27:53.007Z,12.43
2019-01-21T01:30:20.081Z,11.00
2019-01-21T01:32:47.306Z,11.83
2019-01-21T01:35:14.547Z,13.07
2019-01-21T01:37:41.665Z,11.47
2019-01-21T01:40:08.738Z,13.63
2019-01-21T01:42:35.806Z,14.90
2019-01-21T01:45:03.002Z,11.17
2019-01-21T01:47:30.132Z,11.20
2019-01-21T01:49:57.222Z,12.50
2019-01-21T01:52:26.678Z,10.20
2019-01-21T01:54:53.697Z,14.03
2019-01-21T01:57:20.849Z,12.10
2019-01-21T01:59:47.899Z,15.07
2019-01-21T02:02:15.005Z,10.83
2019-01-21T02:04:42.201Z,12.47
2019-01-21T02:07:09.266Z,12.93
2019-01-21T02:09:36.419Z,13.07
2019-01-21T02:12:03.613Z,13.43
2019-01-21T02:14:30.669Z,13.03
2019-01-21T02:16:57.840Z,13.20
2019-01-21T02:19:24.929Z,12.00
2019-01-21T02:21:52.268Z,12.80
2019-01-21T02:24:19.366Z,12.13
2019-01-21T02:26:46.655Z,16.10
2019-01-21T02:29:13.760Z,12.40
2019-01-21T02:31:40.846Z,13.70
2019-01-21T02:34:07.921Z,15.30
2019-01-21T02:36:35.255Z,13.80
2019-01-21T02:39:02.312Z,11.73
2019-01-21T02:41:29.400Z,13.53
2019-01-21T02:43:56.471Z,13.23
2019-01-21T02:46:23.650Z,13.47
2019-01-21T02:48:50.827Z,13.57
2019-01-21T02:51:18.063Z,10.87
2019-01-21T02:53:45.121Z,12.57
2019-01-21T02:56:12.259Z,12.53
2019-01-21T02:58:39.326Z,13.30
2019-01-21T03:01:06.437Z,11.67
2019-01-21T03:03:33.528Z,11.90
2019-01-21T03:06:00.979Z,10.70
2019-01-21T03:08:28.100Z,12.27
2019-01-21T03:10:55.170Z,12.67
2019-01-21T03:13:22.232Z,12.83
2019-01-21T03:15:49.442Z,11.57
2019-01-21T03:18:16.540Z,10.67
2019-01-21T03:20:44.129Z,10.77
2019-01-21T03:23:11.194Z,13.30
2019-01-21T03:25:38.456Z,12.87
2019-01-21T03:28:05.518Z,13.80
2019-01-21T03:30:32.612Z,13.83
2019-01-21T03:32:59.715Z,15.30
2019-01-21T03:35:27.152Z,12.30
2019-01-21T03:37:54.319Z,11.90
2019-01-21T03:40:21.378Z,13.63
2019-01-21T03:42:48.450Z,11.30
2019-01-21T03:45:15.556Z,14.47
2019-01-21T03:47:42.627Z,11.47
2019-01-21T03:50:10.072Z,12.03
2019-01-21T03:52:37.167Z,10.50
2019-01-21T03:55:04.266Z,11.00
2019-01-21T03:57:31.322Z,11.20
2019-01-21T03:59:58.408Z,12.80
2019-01-21T04:02:25.496Z,11.97
2019-01-21T04:04:53.034Z,13.37
2019-01-21T04:07:20.313Z,11.53
2019-01-21T04:09:47.408Z,11.30
2019-01-21T04:12:14.489Z,10.73
2019-01-21T04:14:41.579Z,10.67
2019-01-21T04:17:08.923Z,12.33
2019-01-21T04:19:36.343Z,11.80
2019-01-21T04:22:03.455Z,11.43
2019-01-21T04:24:30.628Z,11.10
2019-01-21T04:26:57.688Z,11.17
2019-01-21T04:29:24.783Z,11.17
2019-01-21T04:31:51.889Z,10.73
2019-01-21T04:34:19.039Z,11.00
2019-01-21T04:36:46.318Z,10.57
2019-01-21T04:39:13.395Z,11.40
2019-01-21T04:41:40.479Z,10.27
2019-01-21T04:44:07.663Z,10.53
2019-01-21T04:46:34.717Z,12.10
2019-01-21T04:49:01.973Z,9.60
2019-01-21T04:51:29.061Z,9.73
2019-01-21T04:53:56.126Z,11.00
2019-01-21T04:56:23.279Z,11.53
2019-01-21T04:58:50.360Z,10.13
2019-01-21T05:01:17.518Z,11.90
2019-01-21T05:03:44.601Z,9.57
2019-01-21T05:06:11.660Z,13.73
2019-01-21T05:08:38.964Z,10.00
2019-01-21T05:11:06.055Z,10.97
2019-01-21T05:13:33.178Z,10.43
2019-01-21T05:16:00.309Z,11.90
2019-01-21T05:18:27.402Z,9.57
2019-01-21T05:20:54.981Z,10.73
2019-01-21T05:23:22.116Z,11.23
2019-01-21T05:25:49.325Z,12.10
2019-01-21T05:28:16.424Z,11.10
2019-01-21T05:30:43.604Z,12.80
2019-01-21T05:33:10.739Z,11.63
2019-01-21T05:35:38.189Z,10.37
2019-01-21T05:38:05.332Z,11.73
2019-01-21T05:40:32.497Z,11.60
2019-01-21T05:42:59.641Z,12.17
2019-01-21T05:45:26.701Z,10.87
2019-01-21T05:47:54.032Z,13.53
2019-01-21T05:50:21.166Z,11.20
2019-01-21T05:52:48.346Z,11.20
2019-01-21T05:55:15.476Z,10.80
2019-01-21T05:57:42.591Z,11.53
2019-01-21T06:00:09.692Z,12.20
2019-01-21T06:02:36.798Z,11.63
2019-01-21T06:05:03.874Z,12.57
2019-01-21T06:07:31.180Z,11.83
2019-01-21T06:09:58.253Z,11.30
2019-01-21T06:12:25.306Z,11.70
2019-01-21T06:14:52.533Z,9.93
2019-01-21T06:17:19.607Z,10.40
2019-01-21T06:19:46.691Z,10.97
2019-01-21T06:22:13.753Z,11.27
2019-01-21T06:24:40.807Z,12.80
2019-01-21T06:27:08.008Z,15.60
2019-01-21T06:29:35.152Z,15.90
2019-01-21T06:32:02.211Z,10.53
2019-01-21T06:34:29.320Z,15.40
2019-01-21T06:36:56.371Z,15.67
2019-01-21T06:39:23.453Z,14.20
2019-01-21T06:41:50.557Z,16.00
2019-01-21T06:44:17.615Z,17.17
2019-01-21T06:46:46.401Z,12.40
2019-01-21T06:49:13.694Z,11.60
2019-01-21T06:51:40.821Z,17.37
2019-01-21T06:54:07.925Z,15.33
2019-01-21T06:56:35.027Z,15.53
2019-01-21T06:59:02.095Z,16.07
2019-01-21T07:01:29.184Z,12.93
2019-01-21T07:03:56.252Z,11.83
2019-01-21T07:06:23.398Z,11.60
2019-01-21T07:08:50.495Z,12.23
2019-01-21T07:11:17.557Z,13.77
2019-01-21T07:13:44.659Z,12.00
2019-01-21T07:16:11.996Z,10.17
2019-01-21T07:18:39.057Z,14.77
2019-01-21T07:21:06.163Z,14.17
2019-01-21T07:23:33.260Z,11.90
2019-01-21T07:26:00.336Z,12.33
2019-01-21T07:28:27.414Z,11.50
2019-01-21T07:30:54.691Z,14.00
2019-01-21T07:33:21.785Z,12.03
2019-01-21T07:35:48.849Z,11.30
2019-01-21T07:38:16.039Z,10.80
2019-01-21T07:40:43.099Z,11.00
2019-01-21T07:43:10.161Z,16.33
2019-01-21T07:45:41.242Z,11.87
2019-01-21T07:48:06.029Z,12.37
2019-01-21T07:50:33.091Z,16.63
2019-01-21T07:53:00.249Z,10.70
2019-01-21T07:55:27.422Z,13.70
2019-01-21T07:57:54.482Z,14.20
2019-01-21T08:00:21.656Z,17.67
2019-01-21T08:02:48.747Z,11.40
2019-01-21T08:05:16.033Z,11.37
2019-01-21T08:07:43.094Z,12.50
2019-01-21T08:10:10.190Z,13.50
2019-01-21T08:12:37.301Z,13.07
2019-01-21T08:15:04.383Z,12.83
2019-01-21T08:17:31.677Z,11.40
2019-01-21T08:19:58.733Z,12.10
2019-01-21T08:22:25.897Z,13.33
2019-01-21T08:24:52.956Z,11.07
2019-01-21T08:27:20.059Z,12.93
2019-01-21T08:29:47.153Z,11.77
2019-01-21T08:32:14.807Z,11.67
2019-01-21T08:34:41.965Z,11.70
2019-01-21T08:37:09.027Z,10.40
2019-01-21T08:39:36.343Z,11.33
2019-01-21T08:42:03.503Z,12.10
2019-01-21T08:44:30.602Z,11.03
2019-01-21T08:46:57.661Z,10.97
2019-01-21T08:49:30.551Z,15.17
2019-01-21T08:51:53.823Z,15.10
2019-01-21T08:54:20.887Z,11.63
2019-01-21T08:56:48.121Z,10.83
2019-01-21T08:59:15.198Z,12.90
2019-01-21T09:01:42.257Z,12.90
2019-01-21T09:04:09.341Z,14.13
2019-01-21T09:06:36.404Z,12.27
2019-01-21T09:09:03.594Z,13.53
2019-01-21T09:11:30.662Z,12.07
2019-01-21T09:13:57.745Z,11.13
2019-01-21T09:16:24.814Z,13.40
2019-01-21T09:18:51.962Z,12.63
2019-01-21T09:21:19.100Z,15.13
2019-01-21T09:23:46.164Z,11.90
2019-01-21T09:26:13.575Z,13.43
2019-01-21T09:28:40.665Z,12.33
2019-01-21T09:31:07.755Z,10.13
2019-01-21T09:33:34.820Z,15.47
2019-01-21T09:36:02.113Z,18.50
2019-01-21T09:38:29.191Z,11.53
2019-01-21T09:40:56.291Z,13.53
2019-01-21T09:43:24.724Z,16.60
2019-01-21T09:45:51.801Z,16.50
2019-01-21T09:48:19.006Z,11.97
2019-01-21T09:50:46.129Z,15.07
2019-01-21T09:53:13.200Z,12.93
2019-01-21T09:55:40.386Z,12.27
2019-01-21T09:58:07.452Z,13.30
2019-01-21T10:00:34.566Z,19.57
2019-01-21T10:03:01.629Z,14.07
2019-01-21T10:05:30.017Z,13.27
2019-01-21T10:07:57.126Z,13.33
2019-01-21T10:10:24.217Z,15.17
2019-01-21T10:12:51.294Z,14.17
2019-01-21T10:15:18.583Z,12.20
2019-01-21T10:17:45.643Z,15.13
2019-01-21T10:20:12.734Z,16.27
2019-01-21T10:22:39.791Z,13.37
2019-01-21T10:25:06.973Z,12.63
2019-01-21T10:27:34.059Z,14.73
2019-01-21T10:30:01.204Z,13.17
2019-01-21T10:32:28.361Z,16.30
2019-01-21T10:34:55.569Z,15.47
2019-01-21T10:37:22.642Z,12.70
2019-01-21T10:39:49.773Z,10.90
2019-01-21T10:42:16.888Z,15.20
2019-01-21T10:44:44.015Z,13.07
2019-01-21T10:47:11.080Z,14.20
2019-01-21T10:49:38.208Z,11.70
2019-01-21T10:52:05.342Z,11.70
2019-01-21T10:54:35.459Z,12.83
2019-01-21T10:57:02.640Z,16.57
2019-01-21T10:59:29.823Z,14.33
2019-01-21T11:01:56.891Z,12.77
2019-01-21T11:04:23.982Z,15.10
2019-01-21T11:06:51.273Z,12.37
2019-01-21T11:09:18.414Z,14.37
2019-01-21T11:11:45.573Z,14.07
2019-01-21T11:14:12.716Z,11.80
2019-01-21T11:16:39.872Z,14.30
2019-01-21T11:19:06.937Z,14.40
2019-01-21T11:21:37.082Z,16.23
2019-01-21T11:24:04.315Z,13.57
2019-01-21T11:26:31.562Z,11.87
2019-01-21T11:28:58.772Z,15.73
2019-01-21T11:31:26.404Z,15.13
2019-01-21T11:33:53.557Z,15.93
2019-01-21T11:36:20.755Z,21.67
2019-01-21T11:38:47.817Z,14.57
2019-01-21T11:41:14.935Z,16.50
2019-01-21T11:43:42.087Z,12.93
2019-01-21T11:46:09.164Z,13.63
2019-01-21T11:48:36.410Z,14.53
2019-01-21T11:51:03.464Z,13.93
2019-01-21T11:53:30.556Z,19.53
2019-01-21T11:55:57.805Z,12.60
2019-01-21T11:58:24.873Z,19.30
2019-01-21T12:00:51.994Z,19.37
2019-01-21T12:03:23.495Z,16.33
2019-01-21T12:05:47.833Z,15.60
2019-01-21T12:08:15.043Z,16.70
2019-01-21T12:10:45.394Z,15.80
2019-01-21T12:13:16.317Z,16.57
2019-01-21T12:15:43.367Z,13.87
2019-01-21T12:18:10.612Z,21.10
2019-01-21T12:20:40.457Z,16.23
2019-01-21T12:23:07.527Z,12.00
2019-01-21T12:25:34.853Z,14.20
2019-01-21T12:28:01.950Z,15.40
2019-01-21T12:30:29.069Z,12.30
2019-01-21T12:32:56.153Z,13.20
2019-01-21T12:35:23.418Z,12.60
2019-01-21T12:37:50.523Z,11.70
2019-01-21T12:40:17.634Z,12.30
2019-01-21T12:42:44.722Z,13.33
2019-01-21T12:45:11.794Z,13.73
2019-01-21T12:47:42.273Z,14.13
2019-01-21T12:50:09.324Z,10.30
2019-01-21T12:52:36.427Z,17.03
2019-01-21T12:55:03.719Z,15.00
2019-01-21T12:57:30.851Z,13.03
2019-01-21T12:59:57.962Z,11.60
2019-01-21T13:02:25.783Z,16.83
2019-01-21T13:04:53.253Z,13.10
2019-01-21T13:07:24.243Z,11.87
2019-01-21T13:09:59.597Z,12.27
2019-01-21T13:12:34.065Z,10.13
2019-01-21T13:15:07.135Z,14.43
2019-01-21T13:17:39.396Z,15.87
2019-01-21T13:20:11.254Z,13.83
2019-01-21T13:22:38.309Z,10.00
2019-01-21T13:25:05.557Z,12.00
2019-01-21T13:27:32.685Z,10.27
2019-01-21T13:29:59.779Z,12.13
2019-01-21T13:32:26.884Z,12.90
2019-01-21T13:34:54.144Z,12.17
2019-01-21T13:37:21.247Z,10.43
2019-01-21T13:39:48.298Z,13.83
2019-01-21T13:42:15.464Z,11.17
2019-01-21T13:44:42.566Z,11.37
2019-01-21T13:47:09.789Z,11.73
2019-01-21T13:49:36.871Z,11.10
2019-01-21T13:52:04.058Z,12.20
2019-01-21T13:54:31.145Z,12.47
2019-01-21T13:56:59.734Z,10.93
2019-01-21T13:59:30.272Z,10.07
2019-01-21T14:02:02.230Z,10.37
2019-01-21T14:04:33.985Z,11.53
2019-01-21T14:07:10.040Z,12.03
2019-01-21T14:09:44.703Z,10.67
2019-01-21T14:12:16.509Z,12.40
2019-01-21T14:14:43.726Z,11.10
2019-01-21T14:17:10.783Z,11.87
2019-01-21T14:19:37.879Z,13.90
2019-01-21T14:22:19.042Z,11.60
2019-01-21T14:24:46.120Z,11.00
2019-01-21T14:27:13.223Z,12.77
2019-01-21T14:29:40.328Z,9.97
2019-01-21T14:32:07.419Z,9.57
2019-01-21T14:34:34.540Z,10.00
2019-01-21T14:37:01.599Z,10.70
2019-01-21T14:39:28.785Z,10.43
2019-01-21T14:41:55.842Z,12.73
2019-01-21T14:44:22.920Z,10.23
2019-01-21T14:46:50.134Z,10.60
2019-01-21T14:49:17.358Z,11.20
2019-01-21T14:51:44.471Z,11.87
2019-01-21T14:54:11.549Z,12.23
2019-01-21T14:56:38.766Z,11.80
2019-01-21T14:59:05.915Z,11.73
2019-01-21T15:01:33.008Z,12.07
2019-01-21T15:04:00.147Z,15.13
2019-01-21T15:06:27.326Z,14.37
2019-01-21T15:08:54.646Z,13.60
2019-01-21T15:11:21.795Z,16.03
2019-01-21T15:13:49.020Z,12.83
2019-01-21T15:16:16.102Z,14.87
2019-01-21T15:18:43.409Z,15.43
2019-01-21T15:21:10.611Z,15.13
2019-01-21T15:23:37.771Z,13.70
2019-01-21T15:26:04.931Z,13.40
2019-01-21T15:28:32.123Z,14.93
2019-01-21T15:30:59.253Z,13.87
2019-01-21T15:33:26.409Z,20.33
2019-01-21T15:35:53.566Z,19.83
2019-01-21T15:38:20.902Z,19.00
2019-01-21T15:40:48.002Z,17.70
2019-01-21T15:43:15.126Z,21.77
2019-01-21T15:45:42.297Z,15.40
2019-01-21T15:48:09.418Z,13.37
2019-01-21T15:50:36.562Z,12.00
2019-01-21T15:53:03.731Z,15.57
2019-01-21T15:55:30.851Z,26.40
2019-01-21T15:57:57.970Z,14.80
2019-01-21T16:00:25.181Z,18.90
2019-01-21T16:02:52.253Z,17.00
2019-01-21T16:05:19.456Z,13.47
2019-01-21T16:07:46.615Z,13.20
2019-01-21T16:10:13.730Z,23.97
2019-01-21T16:12:40.818Z,12.50
2019-01-21T16:15:08.056Z,15.13
2019-01-21T16:17:35.172Z,16.90
2019-01-21T16:20:02.265Z,14.10
2019-01-21T16:22:29.419Z,21.03
2019-01-21T16:24:56.484Z,18.60
2019-01-21T16:27:23.578Z,13.90
2019-01-21T16:29:50.760Z,13.00
2019-01-21T16:32:18.501Z,19.50
2019-01-21T16:34:45.664Z,17.50
2019-01-21T16:37:12.722Z,22.43
2019-01-21T16:39:39.792Z,33.80
2019-01-21T16:42:06.894Z,25.53
2019-01-21T16:44:33.954Z,27.60
2019-01-21T16:47:01.329Z,22.97
2019-01-21T16:49:28.475Z,23.97
2019-01-21T16:51:55.660Z,19.27
2019-01-21T16:54:22.769Z,29.70
2019-01-21T16:56:49.844Z,31.87
2019-01-21T16:59:16.980Z,26.53
2019-01-21T17:01:44.076Z,21.30
2019-01-21T17:04:11.139Z,31.10
2019-01-21T17:06:39.520Z,28.63
2019-01-21T17:09:06.784Z,26.17
2019-01-21T17:11:33.852Z,22.00
2019-01-21T17:14:00.934Z,22.57
2019-01-21T17:16:28.133Z,22.60
2019-01-21T17:18:55.234Z,20.80
2019-01-21T17:21:26.948Z,28.27
2019-01-21T17:23:51.116Z,25.77
2019-01-21T17:26:18.195Z,26.00
2019-01-21T17:28:45.417Z,25.40
2019-01-21T17:31:12.472Z,23.23
2019-01-21T17:33:39.566Z,27.57
2019-01-21T17:36:06.765Z,23.50
2019-01-21T17:38:33.828Z,24.97
2019-01-21T17:41:00.944Z,25.23
2019-01-21T17:43:28.002Z,19.43
2019-01-21T17:45:55.089Z,20.90
2019-01-21T17:48:22.201Z,20.13
2019-01-21T17:50:49.307Z,25.70
2019-01-21T17:53:16.371Z,29.87
2019-01-21T17:55:46.457Z,25.73
2019-01-21T17:58:13.569Z,20.43
2019-01-21T18:00:40.723Z,26.70
2019-01-21T18:03:07.820Z,19.37
2019-01-21T18:05:34.882Z,23.87
2019-01-21T18:08:02.080Z,23.17
2019-01-21T18:10:29.160Z,27.27
2019-01-21T18:13:03.065Z,21.80
2019-01-21T18:15:36.769Z,19.30
2019-01-21T18:18:02.265Z,24.40
2019-01-21T18:20:29.336Z,26.17
2019-01-21T18:22:56.459Z,19.73
2019-01-21T18:25:23.536Z,21.50
2019-01-21T18:27:50.769Z,35.30
2019-01-21T18:30:17.844Z,32.23
2019-01-21T18:32:44.945Z,24.03
2019-01-21T18:35:12.041Z,20.70
2019-01-21T18:37:39.352Z,22.33
2019-01-21T18:40:06.427Z,20.07
2019-01-21T18:42:33.526Z,20.23
2019-01-21T18:45:00.604Z,18.87
2019-01-21T18:47:28.301Z,24.63
2019-01-21T18:49:55.596Z,18.50
2019-01-21T18:52:22.701Z,19.67
2019-01-21T18:54:49.767Z,19.07
2019-01-21T18:57:16.957Z,25.10
2019-01-21T18:59:44.051Z,34.50
2019-01-21T19:02:11.142Z,19.03
2019-01-21T19:04:38.215Z,16.03
2019-01-21T19:07:05.368Z,20.00
2019-01-21T19:09:32.469Z,20.80
2019-01-21T19:11:59.719Z,19.13
2019-01-21T19:14:26.778Z,19.90
2019-01-21T19:16:54.047Z,14.87
2019-01-21T19:19:21.133Z,16.47
2019-01-21T19:21:53.530Z,24.03
2019-01-21T19:24:17.047Z,16.07
2019-01-21T19:26:44.116Z,16.07
2019-01-21T19:29:11.252Z,16.27
2019-01-21T19:31:38.313Z,16.23
2019-01-21T19:34:05.416Z,16.03
2019-01-21T19:36:32.469Z,15.80
2019-01-21T19:38:59.631Z,15.27
2019-01-21T19:41:28.458Z,16.33
2019-01-21T19:43:55.568Z,16.93
2019-01-21T19:46:22.897Z,20.00
2019-01-21T19:48:50.073Z,15.43
2019-01-21T19:51:17.137Z,15.67
2019-01-21T19:53:44.369Z,16.23
2019-01-21T19:56:11.473Z,15.70
2019-01-21T19:58:38.688Z,16.00
2019-01-21T20:01:05.786Z,22.80
2019-01-21T20:03:32.848Z,18.30
2019-01-21T20:06:00.025Z,24.10
2019-01-21T20:08:27.090Z,24.37
2019-01-21T20:10:54.320Z,19.20
2019-01-21T20:13:21.430Z,25.43
2019-01-21T20:15:48.497Z,23.80
2019-01-21T20:18:17.886Z,18.03
2019-01-21T20:20:46.704Z,19.80
2019-01-21T20:23:13.799Z,20.67
2019-01-21T20:25:40.863Z,17.93
2019-01-21T20:28:07.973Z,22.13
2019-01-21T20:30:35.037Z,18.70
2019-01-21T20:33:02.140Z,26.77
2019-01-21T20:35:29.202Z,19.00
2019-01-21T20:37:56.395Z,19.93
2019-01-21T20:40:23.478Z,24.07
2019-01-21T20:42:50.565Z,22.23
2019-01-21T20:45:17.631Z,15.10
2019-01-21T20:47:44.806Z,16.60
2019-01-21T20:50:11.981Z,16.50
2019-01-21T20:52:39.061Z,27.47
2019-01-21T20:55:06.317Z,19.33
2019-01-21T20:57:33.416Z,20.30
2019-01-21T21:00:00.501Z,16.30
2019-01-21T21:02:28.272Z,15.17
2019-01-21T21:04:55.337Z,18.00
2019-01-21T21:07:22.707Z,14.63
2019-01-21T21:09:49.799Z,17.17
2019-01-21T21:12:16.863Z,20.73
2019-01-21T21:14:43.951Z,18.33
2019-01-21T21:17:11.075Z,20.70
2019-01-21T21:19:38.243Z,15.60
2019-01-21T21:22:05.481Z,15.40
2019-01-21T21:24:32.666Z,16.53
2019-01-21T21:26:59.798Z,15.00
2019-01-21T21:29:26.877Z,14.50
2019-01-21T21:31:54.459Z,16.40
2019-01-21T21:34:21.599Z,16.40
2019-01-21T21:36:48.776Z,12.87
2019-01-21T21:39:15.882Z,15.40
2019-01-21T21:41:43.021Z,16.53
2019-01-21T21:44:10.354Z,19.13
2019-01-21T21:46:37.501Z,16.30
2019-01-21T21:49:04.832Z,17.87
2019-01-21T21:51:31.951Z,17.73
2019-01-21T21:53:59.095Z,18.20
2019-01-21T21:56:26.387Z,14.40
2019-01-21T21:58:53.483Z,19.10
2019-01-21T22:01:23.983Z,16.33
2019-01-21T22:03:49.786Z,15.20
2019-01-21T22:06:17.034Z,15.10
2019-01-21T22:08:44.098Z,18.60
2019-01-21T22:11:11.290Z,16.10
2019-01-21T22:13:38.486Z,16.33
2019-01-21T22:16:05.608Z,19.80
2019-01-21T22:18:32.751Z,15.13
2019-01-21T22:20:59.935Z,18.33
2019-01-21T22:23:27.026Z,15.77
2019-01-21T22:25:54.139Z,17.07
2019-01-21T22:28:21.250Z,17.40
2019-01-21T22:30:48.392Z,17.20
2019-01-21T22:33:15.776Z,14.23
2019-01-21T22:35:43.014Z,17.20
2019-01-21T22:38:10.300Z,13.90
2019-01-21T22:40:37.533Z,14.30
2019-01-21T22:43:07.276Z,16.53
2019-01-21T22:45:34.592Z,24.63
2019-01-21T22:48:01.740Z,13.20
2019-01-21T22:50:28.927Z,12.27
2019-01-21T22:52:56.005Z,14.00
2019-01-21T22:55:23.257Z,15.57
2019-01-21T22:57:50.357Z,15.47
2019-01-21T23:00:17.442Z,13.80
2019-01-21T23:02:44.532Z,14.73
2019-01-21T23:05:11.821Z,15.33
2019-01-21T23:07:38.975Z,12.20
2019-01-21T23:10:06.108Z,12.50
2019-01-21T23:12:33.248Z,16.60
2019-01-21T23:15:00.419Z,17.40
2019-01-21T23:17:27.792Z,12.80
2019-01-21T23:19:54.902Z,12.97
2019-01-21T23:22:22.022Z,14.47
2019-01-21T23:24:49.111Z,14.70
2019-01-21T23:27:16.231Z,14.47
2019-01-21T23:29:43.399Z,11.43
2019-01-21T23:32:11.317Z,13.07
2019-01-21T23:34:38.480Z,17.90
2019-01-21T23:37:05.622Z,15.83
2019-01-21T23:39:32.786Z,16.57
2019-01-21T23:41:59.939Z,14.60
2019-01-21T23:44:27.074Z,13.80
2019-01-21T23:46:54.145Z,16.20
2019-01-21T23:49:21.348Z,12.60
2019-01-21T23:51:48.522Z,14.90
2019-01-21T23:54:15.605Z,14.53
2019-01-21T23:56:42.880Z,14.23
2019-01-21T23:59:09.979Z,16.73
